Time;durP1;ratioP1;P1;durP2;ratioP2;P2;SDS_P1;SDS_P2;PMS_P1;PMS_P2;Temp;Humidity;BMP_temperature;BMP_pressure;BME280_temperature;BME280_humidity;BME280_pressure;Samples;Min_cycle;Max_cycle;Signal;HPM_P1;HPM_P2
2023/10/28 00:01:56;;;;;;;21.10;10.50;;;;;;;9.76;100.00;99302.59;5083478;28;20016;-82
2023/10/28 00:04:23;;;;;;;28.83;10.75;;;;;;;9.69;100.00;99317.41;5070011;28;20038;-82
2023/10/28 00:06:49;;;;;;;24.05;10.45;;;;;;;9.68;100.00;99306.66;5084671;28;20032;-82
2023/10/28 00:09:15;;;;;;;20.50;10.05;;;;;;;9.68;100.00;99313.03;5068599;28;20027;-81
2023/10/28 00:11:41;;;;;;;21.05;10.57;;;;;;;9.63;100.00;99315.47;5081587;28;20504;-82
2023/10/28 00:14:06;;;;;;;19.98;10.38;;;;;;;9.65;100.00;99319.44;5083873;28;20024;-82
2023/10/28 00:16:32;;;;;;;18.13;9.38;;;;;;;9.73;100.00;99314.59;5077892;28;20390;-80
2023/10/28 00:18:57;;;;;;;18.17;9.52;;;;;;;9.68;100.00;99317.84;5077893;28;20549;-82
2023/10/28 00:21:23;;;;;;;15.88;8.68;;;;;;;9.70;100.00;99321.03;5059916;28;20032;-82
2023/10/28 00:23:49;;;;;;;19.55;8.60;;;;;;;9.74;100.00;99313.41;5077344;28;20027;-82
2023/10/28 00:26:14;;;;;;;16.42;9.02;;;;;;;9.79;100.00;99328.94;5062576;28;20035;-82
2023/10/28 00:28:40;;;;;;;16.08;8.77;;;;;;;9.74;100.00;99327.38;5078487;28;20140;-82
2023/10/28 00:31:05;;;;;;;17.15;9.32;;;;;;;9.61;100.00;99331.84;5063739;28;20028;-82
2023/10/28 00:33:31;;;;;;;17.77;9.13;;;;;;;9.63;100.00;99335.00;5085222;28;20579;-81
2023/10/28 00:35:56;;;;;;;15.95;9.25;;;;;;;9.57;100.00;99335.47;5081498;28;20039;-82
2023/10/28 00:38:22;;;;;;;17.17;8.73;;;;;;;9.61;100.00;99334.63;5075114;28;20070;-82
2023/10/28 00:40:48;;;;;;;15.48;9.07;;;;;;;9.55;100.00;99340.66;5059006;28;20081;-81
2023/10/28 00:43:14;;;;;;;19.08;10.90;;;;;;;9.41;100.00;99331.56;5064480;28;20043;-81
2023/10/28 00:45:39;;;;;;;21.30;9.90;;;;;;;9.54;100.00;99339.06;5090101;28;20232;-82
2023/10/28 00:48:06;;;;;;;14.63;8.88;;;;;;;9.43;100.00;99334.75;5077529;28;20539;-82
2023/10/28 00:50:32;;;;;;;14.90;8.63;;;;;;;9.57;100.00;99338.25;5068592;28;20024;-81
2023/10/28 00:52:59;;;;;;;16.42;8.32;;;;;;;9.53;100.00;99345.88;5071093;28;20028;-82
2023/10/28 00:55:26;;;;;;;18.05;9.77;;;;;;;9.59;100.00;99337.81;5084125;28;20040;-81
2023/10/28 00:57:51;;;;;;;18.48;10.65;;;;;;;9.58;100.00;99336.25;5067240;28;20032;-82
2023/10/28 01:00:26;;;;;;;15.68;8.52;;;;;;;9.61;100.00;99335.41;5069800;28;20028;-82
2023/10/28 01:02:52;;;;;;;15.23;8.50;;;;;;;9.59;100.00;99334.25;5062938;28;20028;-82
2023/10/28 01:05:19;;;;;;;17.42;8.57;;;;;;;9.54;100.00;99329.88;5065916;28;20496;-82
2023/10/28 01:07:47;;;;;;;14.82;8.57;;;;;;;9.48;100.00;99337.09;5079054;28;20028;-81
2023/10/28 01:10:30;;;;;;;16.73;8.63;;;;;;;9.46;100.00;99345.88;5059478;28;20150;-82
2023/10/28 01:12:56;;;;;;;15.27;8.32;;;;;;;9.49;100.00;99350.66;5066331;28;20488;-81
2023/10/28 01:15:23;;;;;;;14.18;8.25;;;;;;;9.42;100.00;99339.53;5084107;28;20031;-82
2023/10/28 01:17:49;;;;;;;15.45;7.93;;;;;;;9.44;100.00;99345.50;5081612;28;20047;-81
2023/10/28 01:20:22;;;;;;;14.60;8.50;;;;;;;9.43;100.00;99341.13;5079632;28;20031;-81
2023/10/28 01:22:47;;;;;;;11.77;7.72;;;;;;;9.40;100.00;99339.13;5082972;28;20039;-81
2023/10/28 01:25:13;;;;;;;14.63;7.93;;;;;;;9.40;100.00;99335.56;5068995;28;20040;-82
2023/10/28 01:27:38;;;;;;;16.77;8.82;;;;;;;9.32;100.00;99334.81;5083135;28;20024;-82
2023/10/28 01:30:05;;;;;;;18.85;7.82;;;;;;;9.32;100.00;99337.63;5075542;28;20196;-82
2023/10/28 01:32:30;;;;;;;14.55;8.77;;;;;;;9.41;100.00;99326.00;5059451;28;20091;-82
2023/10/28 01:34:56;;;;;;;15.45;6.85;;;;;;;9.48;100.00;99326.72;5058976;28;20607;-81
2023/10/28 01:37:21;;;;;;;16.40;8.13;;;;;;;9.33;100.00;99319.63;5085612;28;20024;-82
2023/10/28 01:39:50;;;;;;;14.02;7.72;;;;;;;9.30;100.00;99326.06;5082159;28;20071;-82
2023/10/28 01:42:16;;;;;;;12.40;7.55;;;;;;;9.37;100.00;99323.22;5085516;28;20552;-82
2023/10/28 01:44:42;;;;;;;16.73;7.88;;;;;;;9.28;100.00;99317.28;5086390;28;20032;-82
2023/10/28 01:47:08;;;;;;;13.10;7.93;;;;;;;9.35;100.00;99325.63;5065218;28;20071;-81
2023/10/28 01:49:42;;;;;;;10.90;6.78;;;;;;;9.39;100.00;99326.38;5066833;28;20063;-81
2023/10/28 01:52:10;;;;;;;12.73;6.75;;;;;;;9.46;100.00;99317.16;5065131;28;20417;-81
2023/10/28 01:54:36;;;;;;;16.38;7.25;;;;;;;9.33;100.00;99314.06;5080140;28;20488;-82
2023/10/28 01:57:05;;;;;;;13.80;7.22;;;;;;;9.33;100.00;99319.63;5079250;28;20469;-81
2023/10/28 01:59:37;;;;;;;12.23;7.40;;;;;;;9.26;100.00;99328.06;5078412;28;20077;-82
2023/10/28 02:02:04;;;;;;;12.60;6.80;;;;;;;9.31;100.00;99322.03;5083024;28;20032;-82
2023/10/28 02:04:30;;;;;;;17.33;7.97;;;;;;;9.39;100.00;99318.00;5082943;28;20393;-82
2023/10/28 02:06:56;;;;;;;15.27;7.63;;;;;;;9.29;100.00;99330.03;5078083;28;20048;-81
2023/10/28 02:09:21;;;;;;;13.38;7.28;;;;;;;9.34;100.00;99324.81;5075096;28;20067;-82
2023/10/28 02:11:47;;;;;;;13.27;6.25;;;;;;;9.37;100.00;99320.41;5061606;28;20025;-82
2023/10/28 02:14:13;;;;;;;13.50;7.43;;;;;;;9.30;100.00;99331.63;5062527;28;20281;-81
2023/10/28 02:16:39;;;;;;;15.00;7.25;;;;;;;9.22;100.00;99324.50;5075636;28;20039;-81
2023/10/28 02:19:05;;;;;;;17.42;7.85;;;;;;;9.32;100.00;99318.06;5064541;28;20073;-81
2023/10/28 02:21:31;;;;;;;12.60;7.70;;;;;;;9.40;100.00;99325.16;5060780;28;20034;-82
2023/10/28 02:23:57;;;;;;;17.15;8.40;;;;;;;9.40;100.00;99319.59;5063696;28;20076;-82
2023/10/28 02:26:22;;;;;;;13.23;7.72;;;;;;;9.33;100.00;99322.44;5063282;28;20056;-81
2023/10/28 02:28:48;;;;;;;13.60;7.10;;;;;;;9.41;100.00;99335.16;5060542;28;20024;-81
2023/10/28 02:31:13;;;;;;;15.05;7.78;;;;;;;9.42;100.00;99328.34;5077696;28;20032;-82
2023/10/28 02:33:39;;;;;;;18.50;7.80;;;;;;;9.45;100.00;99333.13;5079357;28;20757;-81
2023/10/28 02:36:05;;;;;;;14.85;7.15;;;;;;;9.37;100.00;99326.00;5064203;28;20447;-81
2023/10/28 02:38:32;;;;;;;12.10;7.57;;;;;;;9.37;100.00;99328.78;5074375;28;20028;-81
2023/10/28 02:40:57;;;;;;;13.50;6.90;;;;;;;9.46;100.00;99325.53;5064834;28;20390;-81
2023/10/28 02:43:23;;;;;;;12.48;7.95;;;;;;;9.36;100.00;99330.00;5065336;28;20032;-82
2023/10/28 02:45:48;;;;;;;12.35;7.20;;;;;;;9.27;100.00;99333.22;5066945;28;20036;-81
2023/10/28 02:48:14;;;;;;;13.70;6.60;;;;;;;9.39;100.00;99328.41;5072697;28;20028;-82
2023/10/28 02:50:39;;;;;;;10.73;6.78;;;;;;;9.38;100.00;99332.38;5076011;28;20028;-81
2023/10/28 02:53:04;;;;;;;9.52;6.80;;;;;;;9.39;100.00;99325.59;5075656;28;20129;-81
2023/10/28 02:55:30;;;;;;;13.27;8.00;;;;;;;9.33;100.00;99320.44;5082134;28;20383;-81
2023/10/28 02:57:55;;;;;;;16.08;7.13;;;;;;;9.30;100.00;99318.47;5055049;28;20127;-81
2023/10/28 03:00:22;;;;;;;14.07;7.20;;;;;;;9.41;100.00;99320.41;5077623;28;20498;-81
2023/10/28 03:02:48;;;;;;;17.55;7.03;;;;;;;9.34;100.00;99322.03;5061324;28;20065;-81
2023/10/28 03:05:14;;;;;;;19.92;8.30;;;;;;;9.39;100.00;99323.59;5063402;28;20029;-81
2023/10/28 03:07:41;;;;;;;16.85;6.88;;;;;;;9.34;100.00;99318.47;5078909;28;20032;-82
2023/10/28 03:10:06;;;;;;;14.52;7.57;;;;;;;9.39;100.00;99323.59;5081343;28;20032;-81
2023/10/28 03:12:32;;;;;;;20.05;7.07;;;;;;;9.43;100.00;99329.16;5086313;28;20093;-81
2023/10/28 03:14:57;;;;;;;13.35;6.45;;;;;;;9.43;100.00;99320.78;5064785;28;20048;-81
2023/10/28 03:17:24;;;;;;;13.98;7.90;;;;;;;9.41;100.00;99326.78;5058990;28;20538;-81
2023/10/28 03:19:51;;;;;;;15.60;6.68;;;;;;;9.50;100.00;99318.72;5055795;28;20043;-81
2023/10/28 03:22:16;;;;;;;14.45;6.60;;;;;;;9.54;100.00;99329.88;5081320;28;20024;-82
2023/10/28 03:24:42;;;;;;;15.50;7.05;;;;;;;9.52;100.00;99329.50;5067560;28;20034;-81
2023/10/28 03:27:07;;;;;;;17.30;8.00;;;;;;;9.42;100.00;99319.97;5078363;28;20066;-80
2023/10/28 03:29:32;;;;;;;13.02;7.07;;;;;;;9.45;100.00;99326.75;5081064;28;20031;-81
2023/10/28 03:31:58;;;;;;;13.07;7.22;;;;;;;9.43;100.00;99323.59;5062209;28;20025;-81
2023/10/28 03:34:24;;;;;;;12.77;8.00;;;;;;;9.44;100.00;99325.94;5076336;28;20501;-81
2023/10/28 03:36:49;;;;;;;14.52;7.18;;;;;;;9.44;100.00;99322.38;5079946;28;20029;-81
2023/10/28 03:39:15;;;;;;;15.73;7.70;;;;;;;9.50;100.00;99335.50;5079934;28;20393;-81
2023/10/28 03:41:40;;;;;;;13.93;6.97;;;;;;;9.50;100.00;99326.31;5058887;28;20485;-81
2023/10/28 03:44:06;;;;;;;16.17;7.57;;;;;;;9.54;100.00;99330.69;5078537;28;20031;-81
2023/10/28 03:46:31;;;;;;;11.63;7.63;;;;;;;9.52;100.00;99324.69;5076956;28;20418;-81
2023/10/28 03:48:56;;;;;;;13.63;7.72;;;;;;;9.58;100.00;99330.66;5083193;28;20031;-81
2023/10/28 03:51:22;;;;;;;12.48;8.07;;;;;;;9.51;100.00;99331.50;5060042;28;20032;-81
2023/10/28 03:53:47;;;;;;;13.75;7.15;;;;;;;9.50;100.00;99332.69;5060975;28;20745;-83
2023/10/28 03:56:12;;;;;;;20.20;8.13;;;;;;;9.52;100.00;99335.88;5078071;28;20374;-82
2023/10/28 03:58:38;;;;;;;11.65;7.10;;;;;;;9.52;100.00;99321.91;5061288;28;20036;-82
2023/10/28 04:01:03;;;;;;;15.77;7.55;;;;;;;9.54;100.00;99330.69;5057502;28;20036;-81
2023/10/28 04:03:29;;;;;;;16.60;7.80;;;;;;;9.53;100.00;99328.31;5066160;28;20039;-81
2023/10/28 04:05:54;;;;;;;10.90;6.40;;;;;;;9.54;100.00;99322.28;5064353;28;20382;-81
2023/10/28 04:08:19;;;;;;;13.10;7.75;;;;;;;9.57;100.00;99329.06;5082177;28;20393;-82
2023/10/28 04:10:46;;;;;;;16.35;7.90;;;;;;;9.53;100.00;99317.94;5077687;28;20623;-81
2023/10/28 04:13:12;;;;;;;14.98;7.82;;;;;;;9.51;100.00;99314.75;5065191;28;20021;-81
2023/10/28 04:15:39;;;;;;;14.60;7.90;;;;;;;9.54;100.00;99324.31;5083496;28;20420;-81
2023/10/28 04:18:04;;;;;;;15.88;7.35;;;;;;;9.53;100.00;99323.50;5085026;28;20575;-82
2023/10/28 04:20:31;;;;;;;14.30;7.35;;;;;;;9.52;100.00;99321.13;5071387;28;20028;-81
2023/10/28 04:22:57;;;;;;;18.80;7.82;;;;;;;9.53;100.00;99329.09;5064036;28;20024;-82
2023/10/28 04:25:22;;;;;;;18.95;8.52;;;;;;;9.54;100.00;99327.88;5070241;28;20322;-81
2023/10/28 04:27:48;;;;;;;17.60;8.68;;;;;;;9.54;100.00;99343.84;5069369;28;20065;-82
2023/10/28 04:30:14;;;;;;;19.42;8.35;;;;;;;9.55;100.00;99331.50;5070581;28;20085;-81
2023/10/28 04:32:39;;;;;;;20.52;8.07;;;;;;;9.57;100.00;99323.47;5086805;28;20029;-81
2023/10/28 04:35:10;;;;;;;14.90;8.20;;;;;;;9.60;100.00;99331.06;5062232;28;20480;-81
2023/10/28 04:37:36;;;;;;;14.25;8.23;;;;;;;9.60;100.00;99328.25;5066571;28;20034;-81
2023/10/28 04:40:03;;;;;;;17.08;8.63;;;;;;;9.60;100.00;99331.06;5086308;28;20032;-81
2023/10/28 04:42:29;;;;;;;15.98;9.20;;;;;;;9.60;100.00;99327.47;5059722;28;20039;-81
2023/10/28 04:44:54;;;;;;;16.52;6.95;;;;;;;9.56;100.00;99321.91;5078874;28;20032;-81
2023/10/28 04:47:19;;;;;;;16.50;7.78;;;;;;;9.60;100.00;99327.47;5059669;28;20059;-81
2023/10/28 04:49:45;;;;;;;10.13;7.47;;;;;;;9.61;100.00;99317.88;5064984;28;20035;-81
2023/10/28 04:52:10;;;;;;;14.73;8.10;;;;;;;9.56;100.00;99322.69;5078135;28;20035;-81
2023/10/28 04:54:37;;;;;;;15.93;8.30;;;;;;;9.62;100.00;99325.06;5065037;28;20024;-81
2023/10/28 04:57:03;;;;;;;14.73;7.40;;;;;;;9.64;100.00;99331.03;5063887;28;20026;-81
2023/10/28 04:59:29;;;;;;;15.75;7.55;;;;;;;9.62;100.00;99327.84;5084848;28;20115;-81
2023/10/28 05:01:55;;;;;;;13.30;7.55;;;;;;;9.59;100.00;99325.88;5080007;28;20068;-81
2023/10/28 05:04:20;;;;;;;16.15;6.47;;;;;;;9.60;100.00;99321.88;5064088;28;20047;-81
2023/10/28 05:06:49;;;;;;;15.57;7.20;;;;;;;9.62;100.00;99336.25;5067375;28;20024;-81
2023/10/28 05:09:15;;;;;;;17.73;8.68;;;;;;;9.61;100.00;99331.84;5082684;28;20520;-81
2023/10/28 05:11:41;;;;;;;13.13;7.05;;;;;;;9.61;100.00;99331.84;5079615;28;20028;-81
2023/10/28 05:14:09;;;;;;;11.50;6.82;;;;;;;9.61;100.00;99329.03;5079686;28;20475;-81
2023/10/28 05:16:35;;;;;;;11.38;6.72;;;;;;;9.62;100.00;99328.66;5076106;28;20057;-81
2023/10/28 05:19:00;;;;;;;11.45;6.22;;;;;;;9.60;100.00;99325.47;5061591;28;20550;-81
2023/10/28 05:21:26;;;;;;;10.57;6.80;;;;;;;9.63;100.00;99323.84;5078066;28;20035;-81
2023/10/28 05:23:52;;;;;;;11.85;7.00;;;;;;;9.65;100.00;99327.81;5083388;28;20024;-81
2023/10/28 05:26:18;;;;;;;14.20;6.13;;;;;;;9.61;100.00;99321.44;5058942;28;20047;-81
2023/10/28 05:28:43;;;;;;;12.95;6.60;;;;;;;9.63;100.00;99326.63;5079825;28;20513;-81
2023/10/28 05:31:08;;;;;;;16.52;6.97;;;;;;;9.60;100.00;99316.28;5067204;28;20131;-81
2023/10/28 05:33:34;;;;;;;12.52;6.57;;;;;;;9.60;100.00;99328.25;5077431;28;20064;-81
2023/10/28 05:35:59;;;;;;;14.15;6.90;;;;;;;9.62;100.00;99330.66;5082046;28;20088;-81
2023/10/28 05:38:24;;;;;;;12.35;6.00;;;;;;;9.65;100.00;99330.59;5063043;28;20089;-81
2023/10/28 05:40:50;;;;;;;11.63;5.60;;;;;;;9.67;100.00;99338.59;5067996;28;20063;-81
2023/10/28 05:43:15;;;;;;;10.50;5.75;;;;;;;9.70;100.00;99329.41;5077035;28;20110;-81
2023/10/28 05:45:40;;;;;;;11.75;6.18;;;;;;;9.67;100.00;99333.00;5082286;28;20024;-81
2023/10/28 05:48:06;;;;;;;8.98;5.32;;;;;;;9.65;100.00;99341.00;5062841;28;20024;-81
2023/10/28 05:50:32;;;;;;;12.63;5.70;;;;;;;9.69;100.00;99338.97;5078607;28;20029;-80
2023/10/28 05:52:57;;;;;;;12.38;5.05;;;;;;;9.71;100.00;99350.53;5062335;28;20552;-80
2023/10/28 05:55:23;;;;;;;12.93;5.20;;;;;;;9.70;100.00;99338.56;5061645;28;20044;-81
2023/10/28 05:57:48;;;;;;;12.75;5.50;;;;;;;9.70;100.00;99338.56;5087683;28;20028;-81
2023/10/28 06:00:14;;;;;;;9.00;5.40;;;;;;;9.67;100.00;99344.16;5083871;28;20028;-81
2023/10/28 06:02:40;;;;;;;9.10;4.68;;;;;;;9.69;100.00;99341.75;5059559;28;20489;-81
2023/10/28 06:05:06;;;;;;;11.65;5.30;;;;;;;9.65;100.00;99332.59;5062242;28;20020;-81
2023/10/28 06:07:32;;;;;;;8.55;5.50;;;;;;;9.69;100.00;99347.34;5078669;28;20059;-81
2023/10/28 06:09:57;;;;;;;12.02;5.63;;;;;;;9.73;100.00;99342.53;5049099;28;20507;-81
2023/10/28 06:12:24;;;;;;;9.15;4.60;;;;;;;9.72;100.00;99338.16;5063504;28;20036;-81
2023/10/28 06:14:50;;;;;;;9.70;5.53;;;;;;;9.75;100.00;99340.13;5080122;28;20487;-81
2023/10/28 06:17:16;;;;;;;10.57;4.85;;;;;;;9.71;100.00;99344.94;5076719;28;20048;-81
2023/10/28 06:19:41;;;;;;;8.23;4.55;;;;;;;9.68;100.00;99342.97;5080416;28;20028;-81
2023/10/28 06:22:08;;;;;;;9.15;4.85;;;;;;;9.69;100.00;99348.13;5059978;28;20033;-81
2023/10/28 06:24:34;;;;;;;13.35;5.50;;;;;;;9.65;100.00;99341.00;5060872;28;20035;-81
2023/10/28 06:26:59;;;;;;;7.57;4.13;;;;;;;9.69;100.00;99341.75;5063119;28;20028;-81
2023/10/28 06:29:25;;;;;;;10.50;4.97;;;;;;;9.67;100.00;99338.59;5078359;28;20402;-81
2023/10/28 06:31:51;;;;;;;9.48;5.70;;;;;;;9.68;100.00;99342.97;5060883;28;20117;-81
2023/10/28 06:34:17;;;;;;;6.68;4.43;;;;;;;9.63;100.00;99337.81;5064481;28;20504;-81
2023/10/28 06:36:43;;;;;;;10.27;4.95;;;;;;;9.64;100.00;99347.78;5061477;28;20028;-81
2023/10/28 06:39:11;;;;;;;8.30;5.53;;;;;;;9.57;100.00;99352.22;5078603;28;20103;-81
2023/10/28 06:41:36;;;;;;;8.95;4.28;;;;;;;9.59;100.00;99351.00;5080844;28;20153;-81
2023/10/28 06:44:09;;;;;;;7.47;3.90;;;;;;;9.67;100.00;99363.72;5060870;28;20061;-81
2023/10/28 06:46:34;;;;;;;;;;;;;;;9.61;100.00;99359.78;5061876;28;20436;-81
2023/10/28 06:49:00;;;;;;;5.50;3.95;;;;;;;9.62;100.00;99358.59;5080999;28;19916;-81
2023/10/28 06:51:25;;;;;;;7.35;3.97;;;;;;;9.66;100.00;99367.75;5062266;28;20139;-81
2023/10/28 06:53:50;;;;;;;5.78;3.42;;;;;;;9.68;100.00;99373.72;5058005;28;20027;-81
2023/10/28 06:56:16;;;;;;;11.07;4.00;;;;;;;9.66;100.00;99362.16;5079504;28;20028;-81
2023/10/28 06:58:41;;;;;;;8.00;4.15;;;;;;;9.68;100.00;99366.13;5078159;28;20032;-81
2023/10/28 07:01:09;;;;;;;8.10;4.00;;;;;;;9.69;100.00;99369.69;5056821;28;20089;-81
2023/10/28 07:03:37;;;;;;;7.20;4.03;;;;;;;9.68;100.00;99374.50;5056750;28;20027;-81
2023/10/28 07:06:04;;;;;;;6.78;4.20;;;;;;;9.65;100.00;99380.88;5058436;28;20500;-82
2023/10/28 07:08:29;;;;;;;8.48;4.47;;;;;;;9.67;100.00;99386.09;5075545;28;20024;-81
2023/10/28 07:10:55;;;;;;;10.60;4.25;;;;;;;9.65;100.00;99385.69;5075648;28;20028;-83
2023/10/28 07:13:21;;;;;;;7.72;4.63;;;;;;;9.63;100.00;99383.31;5059655;28;20032;-82
2023/10/28 07:15:46;;;;;;;7.85;4.28;;;;;;;9.67;100.00;99384.06;5053373;28;20522;-82
2023/10/28 07:18:13;;;;;;;5.43;4.40;;;;;;;9.67;100.00;99386.09;5056529;28;20502;-81
2023/10/28 07:20:40;;;;;;;11.80;4.35;;;;;;;9.66;100.00;99384.50;5070991;28;20548;-82
2023/10/28 07:23:07;;;;;;;6.30;4.22;;;;;;;9.68;100.00;99390.47;5053643;28;23969;-82
2023/10/28 07:25:33;;;;;;;8.55;4.15;;;;;;;9.71;100.00;99384.06;5057213;28;20043;-82
2023/10/28 07:27:59;;;;;;;7.18;4.22;;;;;;;9.69;100.00;99389.25;5058692;28;20044;-82
2023/10/28 07:30:24;;;;;;;9.10;4.53;;;;;;;9.70;100.00;99388.06;5074381;28;20078;-81
2023/10/28 07:32:50;;;;;;;8.30;3.92;;;;;;;9.74;100.00;99394.44;5074742;28;20109;-82
2023/10/28 07:35:16;;;;;;;8.80;4.35;;;;;;;9.72;100.00;99391.25;5062272;28;20047;-81
2023/10/28 07:37:42;;;;;;;9.30;4.50;;;;;;;9.80;100.00;99392.00;5079328;28;20465;-81
2023/10/28 07:40:08;;;;;;;7.63;4.03;;;;;;;9.79;100.00;99394.00;5076462;28;20030;-81
2023/10/28 07:42:34;;;;;;;7.10;3.83;;;;;;;9.82;100.00;99400.75;5056111;28;20647;-81
2023/10/28 07:44:59;;;;;;;9.60;4.07;;;;;;;9.80;100.00;99394.78;5071816;28;20120;-80
2023/10/28 07:47:25;;;;;;;8.05;5.18;;;;;;;9.86;100.00;99399.53;5075321;28;20032;-81
2023/10/28 07:49:51;;;;;;;11.13;4.60;;;;;;;9.87;100.00;99400.34;5058182;28;20390;-81
2023/10/28 07:52:17;;;;;;;7.00;4.20;;;;;;;9.87;100.00;99403.13;5075756;28;20028;-81
2023/10/28 07:54:42;;;;;;;9.40;4.60;;;;;;;9.89;100.00;99407.09;5082536;28;20058;-81
2023/10/28 07:57:08;;;;;;;7.65;5.30;;;;;;;9.91;100.00;99399.09;5081570;28;20099;-81
2023/10/28 07:59:33;;;;;;;6.50;3.78;;;;;;;9.87;100.00;99403.94;5078556;28;20028;-81
2023/10/28 08:02:00;;;;;;;9.05;4.10;;;;;;;9.91;100.00;99407.50;5055472;28;20055;-81
2023/10/28 08:04:25;;;;;;;12.25;4.28;;;;;;;9.91;100.00;99413.09;5063101;28;20032;-81
2023/10/28 08:06:51;;;;;;;8.25;4.00;;;;;;;9.96;100.00;99423.81;5062619;28;20569;-80
2023/10/28 08:09:16;;;;;;;5.10;3.58;;;;;;;9.95;100.00;99416.66;5056706;28;20032;-81
2023/10/28 08:11:42;;;;;;;7.40;3.88;;;;;;;9.94;100.00;99412.25;5074421;28;20028;-81
2023/10/28 08:14:08;;;;;;;5.30;3.60;;;;;;;9.99;100.00;99419.41;5061958;28;20044;-81
2023/10/28 08:16:36;;;;;;;6.88;4.30;;;;;;;10.00;100.00;99411.84;5074497;28;20075;-81
2023/10/28 08:19:03;;;;;;;6.88;3.50;;;;;;;10.02;100.00;99412.22;5076146;28;20032;-82
2023/10/28 08:21:29;;;;;;;5.38;3.60;;;;;;;10.03;100.00;99405.41;5061083;28;20047;-81
2023/10/28 08:23:54;;;;;;;7.65;4.10;;;;;;;10.06;100.00;99404.59;5076770;28;20032;-81
2023/10/28 08:26:19;;;;;;;7.25;4.63;;;;;;;10.13;100.00;99404.53;5084714;28;20037;-81
2023/10/28 08:28:50;;;;;;;7.40;3.60;;;;;;;10.17;100.00;99414.50;5062605;28;20533;-82
2023/10/28 08:31:16;;;;;;;5.95;3.90;;;;;;;10.18;100.00;99407.69;5069633;28;20028;-81
2023/10/28 08:33:42;;;;;;;10.10;5.45;;;;;;;10.22;100.00;99401.28;5077258;28;20031;-81
2023/10/28 08:36:08;;;;;;;10.75;5.68;;;;;;;10.25;100.00;99409.66;5061307;28;20398;-81
2023/10/28 08:38:34;;;;;;;12.48;4.20;;;;;;;10.24;100.00;99405.25;5078637;28;20621;-81
2023/10/28 08:41:02;;;;;;;10.10;4.97;;;;;;;10.30;100.00;99414.81;5062583;28;20040;-82
2023/10/28 08:43:27;;;;;;;7.32;4.25;;;;;;;10.31;100.00;99413.63;5067421;28;20111;-81
2023/10/28 08:45:54;;;;;;;6.65;3.65;;;;;;;10.36;100.00;99424.34;5064902;28;20374;-81
2023/10/28 08:48:20;;;;;;;8.10;4.28;;;;;;;10.37;100.00;99414.78;5064933;28;20023;-81
2023/10/28 08:50:51;;;;;;;10.88;3.97;;;;;;;10.40;100.00;99426.34;5065693;28;20024;-81
2023/10/28 08:53:18;;;;;;;10.05;3.92;;;;;;;10.37;100.00;99420.38;5087237;28;20020;-81
2023/10/28 08:55:46;;;;;;;10.48;4.45;;;;;;;10.35;100.00;99425.56;5086236;28;20032;-81
2023/10/28 08:58:12;;;;;;;6.00;3.38;;;;;;;10.32;100.00;99429.19;5085128;28;20032;-81
2023/10/28 09:00:38;;;;;;;6.38;4.20;;;;;;;10.34;100.00;99421.19;5058929;28;20085;-81
2023/10/28 09:03:05;;;;;;;6.72;3.75;;;;;;;10.35;100.00;99422.78;5058681;28;20016;-81
2023/10/28 09:05:31;;;;;;;9.70;3.90;;;;;;;10.41;100.00;99427.91;5065731;28;20458;-86
2023/10/28 09:07:57;;;;;;;5.95;3.80;;;;;;;10.41;100.00;99427.91;5077300;28;20028;-86
2023/10/28 09:10:23;;;;;;;10.32;3.90;;;;;;;10.35;100.00;99425.56;5060254;28;20047;-86
2023/10/28 09:12:51;;;;;;;5.05;3.35;;;;;;;10.32;100.00;99426.38;5063512;28;20386;-87
2023/10/28 09:15:17;;;;;;;6.68;3.33;;;;;;;10.37;100.00;99425.97;5063303;28;20465;-87
2023/10/28 09:17:42;;;;;;;5.57;3.40;;;;;;;10.45;100.00;99434.28;5053681;28;20067;-87
2023/10/28 09:20:11;;;;;;;8.63;3.40;;;;;;;10.48;100.00;99436.28;5056383;28;20025;-88
2023/10/28 09:22:46;;;;;;;8.20;4.22;;;;;;;10.48;100.00;99431.47;5063468;28;20028;-87
2023/10/28 09:25:15;;;;;;;7.57;3.67;;;;;;;10.56;100.00;99438.59;5045685;28;20478;-87
2023/10/28 09:27:42;;;;;;;8.57;3.28;;;;;;;10.62;100.00;99441.72;5044379;28;20036;-87
2023/10/28 09:30:10;;;;;;;7.85;3.65;;;;;;;10.62;100.00;99438.13;5048070;28;20098;-86
2023/10/28 09:32:37;;;;;;;6.88;3.45;;;;;;;10.64;100.00;99450.50;5047449;28;20028;-86
2023/10/28 09:35:07;;;;;;;9.68;4.00;;;;;;;10.66;100.00;99450.09;5044918;28;20509;-86
2023/10/28 09:37:37;;;;;;;8.07;4.18;;;;;;;10.59;100.00;99453.75;5060074;28;20036;-86
2023/10/28 09:40:05;;;;;;;7.68;3.90;;;;;;;10.66;100.00;99452.88;5044853;28;20021;-85
2023/10/28 09:42:32;;;;;;;5.70;3.65;;;;;;;10.70;100.00;99457.25;5058247;28;20840;-86
2023/10/28 09:45:05;;;;;;;7.18;3.63;;;;;;;10.71;100.00;99456.06;5047253;28;20120;-84
2023/10/28 09:47:57;;;;;;;8.50;3.50;;;;;;;10.81;100.00;99454.34;5046694;28;20535;-85
2023/10/28 09:50:27;;;;;;;7.47;4.63;;;;;;;10.82;100.00;99455.94;5049068;28;20032;-86
2023/10/28 09:52:54;;;;;;;9.32;3.80;;;;;;;10.74;100.00;99443.22;5048451;28;20082;-86
2023/10/28 09:55:25;;;;;;;11.20;3.85;;;;;;;10.83;100.00;99434.34;5059550;28;20020;-87
2023/10/28 09:58:00;;;;;;;6.85;3.80;;;;;;;10.89;100.00;99444.66;5049384;28;20036;-88
2023/10/28 10:00:27;;;;;;;5.13;3.50;;;;;;;10.91;100.00;99447.84;5059332;28;20059;-87
2023/10/28 10:03:15;;;;;;;6.05;4.28;;;;;;;10.96;100.00;99444.63;5044994;28;20021;-87
2023/10/28 10:05:45;;;;;;;9.02;4.10;;;;;;;11.03;100.00;99438.13;5059933;28;20042;-89
2023/10/28 10:08:24;;;;;;;8.32;4.47;;;;;;;10.97;100.00;99437.78;5059410;28;20025;-89
2023/10/28 10:10:51;;;;;;;10.73;4.22;;;;;;;10.90;100.00;99421.06;5054712;28;20043;-89
2023/10/28 10:13:17;;;;;;;7.32;4.35;;;;;;;11.12;100.00;99449.63;5042440;28;20033;-89
2023/10/28 10:16:03;;;;;;;7.63;3.80;;;;;;;11.23;100.00;99451.53;5053168;28;20033;-88
2023/10/28 10:18:38;;;;;;;9.38;4.03;;;;;;;11.12;100.00;99452.44;5053872;28;20072;-88
2023/10/28 10:21:18;;;;;;;7.55;3.75;;;;;;;11.21;100.00;99448.34;5079628;28;20032;-88
2023/10/28 10:23:49;;;;;;;15.13;4.03;;;;;;;11.14;100.00;99461.22;5061128;28;20028;-87
2023/10/28 10:26:31;;;;;;;5.13;3.83;;;;;;;11.09;100.00;99447.69;5074484;28;20558;-87
2023/10/28 10:29:00;;;;;;;7.05;3.58;;;;;;;11.09;100.00;99450.47;5064952;28;20032;-87
2023/10/28 10:31:33;;;;;;;4.32;3.30;;;;;;;11.19;100.00;99448.75;5058032;28;20079;-87
2023/10/28 10:34:06;;;;;;;5.20;3.08;;;;;;;11.24;100.00;99461.53;5077763;28;20016;-88
2023/10/28 10:36:38;;;;;;;11.43;3.85;;;;;;;11.18;100.00;99447.19;5062882;28;20494;-88
2023/10/28 10:39:17;;;;;;;9.95;4.20;;;;;;;11.27;100.00;99455.09;5081753;28;20062;-88
2023/10/28 10:41:48;;;;;;;3.95;3.10;;;;;;;11.30;100.00;99457.03;5084199;28;20028;-88
2023/10/28 10:44:33;;;;;;;8.43;3.90;;;;;;;11.42;100.00;99453.69;5077904;28;20077;-88
2023/10/28 10:46:59;;;;;;;7.53;3.58;;;;;;;11.46;100.00;99454.44;5057188;28;20032;-87
2023/10/28 10:49:25;;;;;;;6.10;4.00;;;;;;;11.39;100.00;99437.75;5060363;28;20082;-87
2023/10/28 10:51:51;;;;;;;7.45;3.78;;;;;;;11.46;100.00;99454.44;5055150;28;20024;-88
2023/10/28 10:54:18;;;;;;;10.65;4.60;;;;;;;11.48;100.00;99454.03;5059793;28;20039;-88
2023/10/28 10:56:44;;;;;;;8.65;4.03;;;;;;;11.49;100.00;99448.03;5059480;28;20035;-88
2023/10/28 10:59:09;;;;;;;6.10;3.20;;;;;;;11.49;100.00;99452.81;5077796;28;20035;-87
2023/10/28 11:01:35;;;;;;;8.43;3.35;;;;;;;11.54;100.00;99441.16;5081629;28;20132;-87
2023/10/28 11:04:02;;;;;;;7.05;4.03;;;;;;;11.60;100.00;99448.66;5078881;28;20027;-87
2023/10/28 11:06:28;;;;;;;7.82;3.17;;;;;;;11.48;100.00;99435.22;5061124;28;20036;-88
2023/10/28 11:08:53;;;;;;;7.43;4.03;;;;;;;11.53;100.00;99437.56;5067960;28;20027;-88
2023/10/28 11:11:18;;;;;;;6.88;3.03;;;;;;;11.56;100.00;99436.72;5086252;28;20028;-88
2023/10/28 11:13:44;;;;;;;6.35;3.25;;;;;;;11.61;100.00;99443.84;5063143;28;20012;-87
2023/10/28 11:16:25;;;;;;;11.20;3.92;;;;;;;11.74;100.00;99460.91;5066870;28;20024;-88
2023/10/28 11:18:50;;;;;;;6.15;3.20;;;;;;;11.93;100.00;99454.69;5086982;28;20048;-85
2023/10/28 11:21:16;;;;;;;7.05;3.85;;;;;;;11.95;100.00;99445.81;5062497;28;20043;-86
2023/10/28 11:23:43;;;;;;;4.28;3.22;;;;;;;11.95;100.00;99440.22;5081365;28;20039;-87
2023/10/28 11:26:08;;;;;;;5.35;3.13;;;;;;;12.00;100.00;99446.16;5059044;28;20035;-86